06:48
Airports
History
Links
Donate
Help keep this website running!
PayPal
Bitcoin
Information on this page is community maintained and may be outdated or inaccurate and is intended for reference only or PC simulator navigating.
Always use approved charts for navigating.
ETEJ
BAMBERG AAF
BAMBERG AAF (ETEJ)
Bamberg, Bayern, Germany (96052)
(U)
Lat/Lng:49° 55' 15" N / 10° 54' 53.1" E
49.920834 / 10.91475
Elevation:823'ft 251mMSL
ID / ICAO:ETEJ
Runways:1
Longest:(04-22) 1,142.6m 3,749ft Asphalt
Distance To
Airport ID:
Airport Radio Frequencies
Tower: 120.17
Nearby VORs <50NM
Nearby NDBs
Nearby WeatherUpdated 07-28-17 06:20 GMT
Nearby weather at EDDN, Nurnberg located 30.1 nautical miles from ETEJ
Altimeter: 29.91
Visibility: 6.2 statute miles
Wind: 10 knots (270°)
Temp: 16°c 61°f
Humidity: 87.9%

METAR: EDDN 280620Z 27010KT 9999 SCT015 SCT030 16/14 Q1013 NOSIG

(Powered by phpweather)
Runway 04 / 22
Dimensions:1142.6 x 15.2m 3749' x 50'ft
Surface:Asphalt
Edge Lights:Low intensity
Runway 04 [A]Runway 22 [B]
Heading:036°TH 216°TH
Lat:
Lng:
49° 55' 0"N
10° 54' 36"E
49° 55' 30"N
10° 55' 10.2"E
User Notes and Comments
Google Map
Nearby Airports
(C) BURG FEUERSTEIN 13.1 NM
EDQE SE 132°
(U) HASSFURT SCHWEINFURT 18.4 NM
EDQT WNW 291°
(C) Herzogenaurach 23.4 NM
EDQH S 184°
(U) Coburg Brandensteinsebene 23.9 NM
EDQC N
(U) Neustadt Aisch 27.5 NM
EDQN SSW 213°
(U) Kulmbach 28.3 NM
EDQK ENE 58°
(C) Nurnberg 30.1 NM
EDDN (WX) SSE 165°
VFR Chart
Flight Planning at SkyVector.com